Avery, Idaho
Current Conditions -  °F | °C
As of 3:53 AM on Monday 22 Dec 2014 (Local Time) from KMLP Reporting Station
Overcast Overcast  
Wind Chill: 19°   Ceiling: 900
Heat Index: 25°   Visibility: 10mi
Dew Point: 24°   Wind: 5mph
Humidity: 96%   Direction: NA
Pressure: 29.89"   Gusts: NA
Location:  47.25°N, 115.81°W
Report Text: KMLP 221153Z AUTO VRB04KT 10SM FEW003 BKN009 OVC014 M04/M04 A2989 RMK AO2 SLP154 60001 7//// T10391044 11028 21039 51005 $
Loading
Personal Weather Stations






























Interactive Weather Map New forecast layout! Learn more

10-Day Weather Forecast

Advertisements
Track Severe Weather on mobile